Time;durP1;ratioP1;P1;durP2;ratioP2;P2;SDS_P1;SDS_P2;PMS_P1;PMS_P2;Temp;Humidity;BMP_temperature;BMP_pressure;BME280_temperature;BME280_humidity;BME280_pressure;Samples;Min_cycle;Max_cycle;Signal;HPM_P1;HPM_P2
2022/01/01 00:01:18;;;;;;;541.45;401.10;;;;;;;10.23;77.45;101189.06;5012030;28;20500;-74
2022/01/01 00:03:45;;;;;;;566.78;425.33;;;;;;;10.14;77.64;101196.63;5012758;28;20044;-76
2022/01/01 00:06:11;;;;;;;393.05;287.00;;;;;;;10.11;78.63;101191.72;5012511;28;20452;-77
2022/01/01 00:08:38;;;;;;;280.63;202.77;;;;;;;10.19;78.46;101196.44;5012955;28;20128;-77
2022/01/01 00:11:07;;;;;;;403.48;295.52;;;;;;;10.18;78.22;101203.16;5011799;28;20049;-77
2022/01/01 00:13:32;;;;;;;471.67;336.50;;;;;;;10.16;78.72;101194.31;5013748;28;20488;-78
2022/01/01 00:16:00;;;;;;;414.45;299.13;;;;;;;10.15;78.89;101192.69;5014776;28;20076;-79
2022/01/01 00:18:29;;;;;;;466.85;332.75;;;;;;;10.10;78.54;101206.78;5013175;28;20026;-80
2022/01/01 00:20:54;;;;;;;359.13;262.15;;;;;;;10.04;78.45;101197.00;5013452;28;20034;-79
2022/01/01 00:23:21;;;;;;;312.02;221.20;;;;;;;10.03;78.97;101195.38;5014110;28;20033;-76
2022/01/01 00:25:46;;;;;;;299.63;218.88;;;;;;;10.09;79.87;101189.28;5012532;28;20619;-78
2022/01/01 00:28:12;;;;;;;277.27;185.73;;;;;;;10.02;79.03;101168.75;5014422;28;20030;-73
2022/01/01 00:30:43;;;;;;;297.38;198.32;;;;;;;10.05;78.94;101193.88;5015344;28;20040;-76
2022/01/01 00:33:09;;;;;;;269.13;188.98;;;;;;;10.08;80.33;101197.97;5017932;28;20510;-80
2022/01/01 00:35:35;;;;;;;282.65;207.07;;;;;;;10.13;80.95;101197.78;5017368;28;20034;-81
2022/01/01 00:38:02;;;;;;;273.10;194.40;;;;;;;10.01;80.70;101170.69;5017437;28;20030;-80
2022/01/01 00:40:28;;;;;;;237.82;168.30;;;;;;;10.14;80.67;101186.31;5016790;28;20069;-76
2022/01/01 00:42:54;;;;;;;230.73;157.90;;;;;;;10.15;80.19;101187.13;5015994;28;20416;-78
2022/01/01 00:45:23;;;;;;;174.68;117.60;;;;;;;10.09;79.87;101182.94;5016192;28;20033;-77
2022/01/01 00:47:49;;;;;;;140.68;95.10;;;;;;;10.00;79.17;101199.63;5016037;28;20028;-75
2022/01/01 00:50:14;;;;;;;156.23;104.55;;;;;;;9.96;79.11;101196.72;5016547;28;20125;-78
2022/01/01 00:52:42;;;;;;;150.38;105.78;;;;;;;9.97;79.50;101197.53;5015791;28;20038;-78
2022/01/01 00:55:08;;;;;;;140.77;97.15;;;;;;;9.88;79.78;101193.97;5017086;28;20037;-78
2022/01/01 00:57:34;;;;;;;154.82;106.35;;;;;;;9.90;79.58;101197.22;5016108;28;20121;-78
2022/01/01 01:00:01;;;;;;;141.32;94.72;;;;;;;9.88;79.75;101189.22;5016270;28;20069;-78
2022/01/01 01:02:27;;;;;;;122.18;87.75;;;;;;;9.84;80.06;101177.16;5015526;28;20025;-78
2022/01/01 01:04:52;;;;;;;120.30;83.70;;;;;;;9.83;80.53;101174.69;5015369;28;20446;-78
2022/01/01 01:07:18;;;;;;;122.00;83.70;;;;;;;9.80;81.01;101190.09;5015719;28;20456;-78
2022/01/01 01:09:44;;;;;;;126.65;79.60;;;;;;;9.79;81.25;101194.00;5015244;28;20472;-78
2022/01/01 01:12:10;;;;;;;124.30;82.70;;;;;;;9.82;81.64;101193.34;5015558;28;20037;-78
2022/01/01 01:14:40;;;;;;;112.55;79.00;;;;;;;9.89;81.01;101178.94;5016082;28;20365;-77
2022/01/01 01:17:07;;;;;;;111.80;76.50;;;;;;;9.91;80.54;101176.66;5015953;28;20018;-78
2022/01/01 01:19:33;;;;;;;112.43;76.97;;;;;;;9.86;80.68;101177.66;5016632;28;20507;-78
2022/01/01 01:21:59;;;;;;;112.10;77.05;;;;;;;9.82;81.31;101185.00;5016228;28;20029;-78
2022/01/01 01:24:27;;;;;;;115.28;76.20;;;;;;;9.74;81.32;101183.06;5016464;28;20034;-78
2022/01/01 01:26:53;;;;;;;114.65;77.95;;;;;;;9.61;82.07;101179.38;5015294;28;20050;-78
2022/01/01 01:29:19;;;;;;;120.60;78.05;;;;;;;9.72;81.65;101190.94;5015936;28;20096;-78
2022/01/01 01:31:46;;;;;;;113.47;74.47;;;;;;;9.81;81.59;101188.94;5016185;28;20034;-77
2022/01/01 01:34:11;;;;;;;111.47;73.20;;;;;;;9.73;81.46;101205.63;5016353;28;20026;-78
2022/01/01 01:36:38;;;;;;;107.53;73.93;;;;;;;9.73;81.44;101200.91;5015807;28;20048;-78
2022/01/01 01:39:06;;;;;;;120.78;76.45;;;;;;;9.76;82.05;101211.38;5014884;28;20523;-78
2022/01/01 01:41:32;;;;;;;106.85;72.22;;;;;;;9.75;82.12;101190.28;5015491;28;20056;-78
2022/01/01 01:43:59;;;;;;;111.25;75.40;;;;;;;9.80;82.26;101198.44;5015685;28;20033;-77
2022/01/01 01:46:26;;;;;;;115.20;74.53;;;;;;;9.82;81.36;101196.13;5017760;28;20026;-78
2022/01/01 01:48:54;;;;;;;150.73;100.03;;;;;;;9.89;81.03;101195.59;5016206;28;20030;-78
2022/01/01 01:51:21;;;;;;;128.23;88.68;;;;;;;9.81;80.40;101202.84;5016543;28;20049;-78
2022/01/01 01:53:51;;;;;;;116.35;81.28;;;;;;;9.87;80.69;101207.06;5015754;28;20030;-78
2022/01/01 01:56:17;;;;;;;112.32;73.15;;;;;;;9.82;80.53;101201.69;5016887;28;20495;-77
2022/01/01 01:58:45;;;;;;;107.75;72.38;;;;;;;9.86;81.09;101202.66;5018125;28;20038;-78
2022/01/01 02:01:30;;;;;;;107.57;72.13;;;;;;;9.85;81.40;101216.88;5018557;28;20057;-77
2022/01/01 02:03:59;;;;;;;113.97;71.72;;;;;;;9.81;81.62;101205.63;5016167;28;20056;-78
2022/01/01 02:06:27;;;;;;;115.07;70.93;;;;;;;9.79;81.77;101216.25;5015003;28;20109;-79
2022/01/01 02:08:55;;;;;;;112.00;71.22;;;;;;;9.82;80.84;101198.91;5015244;28;20029;-77
2022/01/01 02:11:24;;;;;;;108.72;70.38;;;;;;;9.78;81.27;101199.91;5016188;28;20060;-77
2022/01/01 02:18:48;;;;;;;102.00;68.80;;;;;;;9.80;82.13;101192.88;5016291;28;20042;-78
2022/01/01 02:21:17;;;;;;;113.00;71.20;;;;;;;9.82;82.13;101190.56;5014894;28;20022;-78
2022/01/01 02:23:46;;;;;;;106.72;67.15;;;;;;;9.87;82.18;101187.59;5015348;28;20033;-77
2022/01/01 02:26:15;;;;;;;93.88;64.53;;;;;;;9.85;82.26;101192.66;5014683;28;20053;-77
2022/01/01 02:28:47;;;;;;;103.10;65.40;;;;;;;9.85;82.66;101189.88;5014913;28;20034;-78
2022/01/01 02:31:16;;;;;;;98.18;65.95;;;;;;;9.85;83.24;101192.66;5014750;28;20037;-77
2022/01/01 02:33:43;;;;;;;96.20;63.17;;;;;;;9.98;82.83;101205.53;5014748;28;20025;-77
2022/01/01 02:36:09;;;;;;;100.85;67.75;;;;;;;9.89;82.65;101196.41;5014599;28;20149;-77
2022/01/01 02:38:36;;;;;;;98.38;65.15;;;;;;;9.92;83.60;101201.31;5014886;28;20165;-77
2022/01/01 02:41:02;;;;;;;95.50;61.33;;;;;;;9.97;83.41;101197.53;5015352;28;20026;-77
2022/01/01 02:43:31;;;;;;;91.47;56.78;;;;;;;9.95;83.43;101195.06;5015847;28;20059;-77
2022/01/01 02:45:57;;;;;;;93.85;58.83;;;;;;;9.92;83.45;101200.50;5016419;28;20113;-78
2022/01/01 02:48:26;;;;;;;100.22;67.60;;;;;;;9.87;84.33;101190.38;5016480;28;20029;-80
2022/01/01 02:50:54;;;;;;;135.75;96.18;;;;;;;9.94;84.42;101193.44;5016153;28;20030;-79
2022/01/01 02:53:22;;;;;;;203.05;150.20;;;;;;;9.87;84.92;101184.00;5016034;28;20021;-77
2022/01/01 02:55:48;;;;;;;320.60;241.48;;;;;;;9.84;85.59;101188.25;5014363;28;20120;-78
2022/01/01 02:58:14;;;;;;;285.75;227.00;;;;;;;9.82;86.07;101179.44;5013939;28;20113;-77
2022/01/01 03:00:40;;;;;;;303.45;240.00;;;;;;;9.53;85.94;101132.16;5014882;28;20128;-78
2022/01/01 03:03:06;;;;;;;375.08;290.33;;;;;;;9.79;86.14;101177.31;5014128;28;20424;-77
2022/01/01 03:05:35;;;;;;;408.00;304.33;;;;;;;9.78;86.06;101184.03;5013845;28;20053;-78
2022/01/01 03:08:00;;;;;;;432.75;315.48;;;;;;;9.82;86.53;101182.22;5014358;28;20026;-78
2022/01/01 03:10:29;;;;;;;388.48;273.95;;;;;;;9.77;85.92;101165.75;5013856;28;20464;-77
2022/01/01 03:12:55;;;;;;;397.52;269.50;;;;;;;9.87;86.42;101173.72;5013737;28;20029;-78
2022/01/01 03:15:20;;;;;;;341.05;232.02;;;;;;;9.88;86.00;101161.44;5013765;28;20091;-78
2022/01/01 03:17:46;;;;;;;157.65;104.20;;;;;;;9.93;86.27;101158.47;5014403;28;20113;-78
2022/01/01 03:20:11;;;;;;;93.80;63.03;;;;;;;9.75;86.29;101128.28;5014023;28;20038;-77
2022/01/01 03:22:37;;;;;;;88.13;56.00;;;;;;;9.95;86.38;101161.72;5014083;28;20595;-78
2022/01/01 03:25:06;;;;;;;82.28;55.05;;;;;;;9.96;86.34;101168.13;5013662;28;20069;-78
2022/01/01 03:27:34;;;;;;;78.68;48.90;;;;;;;10.00;86.73;101168.25;5013581;28;20480;-79
2022/01/01 03:29:59;;;;;;;79.10;51.60;;;;;;;10.01;86.74;101169.88;5014684;28;20030;-79
2022/01/01 03:32:25;;;;;;;74.05;46.50;;;;;;;10.01;86.60;101164.31;5014774;28;20022;-80
2022/01/01 03:34:52;;;;;;;73.00;48.25;;;;;;;10.08;87.02;101176.56;5015557;28;20046;-79
2022/01/01 03:37:20;;;;;;;74.93;47.78;;;;;;;10.14;87.13;101182.72;5015473;28;20026;-79
2022/01/01 03:39:46;;;;;;;80.93;50.38;;;;;;;10.18;87.07;101186.47;5015492;28;20038;-77
2022/01/01 03:42:11;;;;;;;72.25;45.90;;;;;;;10.23;87.21;101183.50;5013969;28;20361;-77
2022/01/01 03:44:37;;;;;;;71.97;46.65;;;;;;;10.31;87.59;101179.88;5014267;28;20030;-78
2022/01/01 03:47:21;;;;;;;63.50;41.00;;;;;;;10.25;87.14;101183.19;5014189;28;20030;-78
2022/01/01 03:49:49;;;;;;;67.85;41.45;;;;;;;10.30;87.52;101183.81;5014613;28;20484;-76
2022/01/01 03:52:15;;;;;;;64.75;42.63;;;;;;;10.32;87.71;101180.69;5014692;28;20029;-78
2022/01/01 03:54:43;;;;;;;66.72;44.33;;;;;;;10.36;87.42;101173.31;5014679;28;20034;-78
2022/01/01 03:57:09;;;;;;;73.80;44.70;;;;;;;10.41;88.17;101173.09;5014536;28;20026;-78
2022/01/01 03:59:35;;;;;;;67.82;42.00;;;;;;;10.41;87.84;101167.53;5016317;28;20112;-76
2022/01/01 04:02:00;;;;;;;70.90;42.78;;;;;;;10.51;88.01;101163.56;5014989;28;20443;-78
2022/01/01 04:04:26;;;;;;;62.05;38.83;;;;;;;10.51;87.47;101160.78;5019202;28;20045;-79
2022/01/01 04:06:53;;;;;;;57.95;40.97;;;;;;;10.57;87.81;101160.22;5018738;28;20104;-78
2022/01/01 04:09:21;;;;;;;58.58;39.50;;;;;;;10.58;87.93;101167.41;5019108;28;20346;-78
2022/01/01 04:11:47;;;;;;;61.13;38.67;;;;;;;10.59;88.04;101157.09;5019363;28;20022;-77
2022/01/01 04:14:16;;;;;;;58.47;35.22;;;;;;;10.64;87.79;101159.66;5018888;28;20034;-77
2022/01/01 04:16:50;;;;;;;54.17;34.67;;;;;;;10.61;87.75;101146.44;5018403;28;20022;-76
2022/01/01 04:19:16;;;;;;;58.03;37.35;;;;;;;10.55;88.04;101140.28;5018383;28;20099;-77
2022/01/01 04:21:42;;;;;;;51.65;35.38;;;;;;;10.66;87.92;101152.63;5018349;28;20540;-78
2022/01/01 04:24:08;;;;;;;60.22;37.10;;;;;;;10.67;88.15;101154.25;5018823;28;20100;-78
2022/01/01 04:26:35;;;;;;;59.60;37.13;;;;;;;10.69;88.33;101151.13;5018415;28;20046;-78
2022/01/01 04:29:04;;;;;;;58.05;35.40;;;;;;;10.72;88.10;101144.88;5019112;28;20093;-78
2022/01/01 04:31:32;;;;;;;63.35;37.17;;;;;;;10.74;88.45;101143.38;5022062;28;20116;-77
2022/01/01 04:33:58;;;;;;;55.92;33.95;;;;;;;10.81;87.96;101137.25;5021713;28;20025;-77
2022/01/01 04:36:24;;;;;;;49.35;32.47;;;;;;;10.79;87.60;101134.00;5019140;28;20117;-77
2022/01/01 04:38:49;;;;;;;54.35;34.22;;;;;;;10.79;87.68;101145.13;5017183;28;20033;-78
2022/01/01 04:41:17;;;;;;;50.60;31.10;;;;;;;10.78;87.60;101148.28;5016807;28;20034;-78
2022/01/01 04:43:43;;;;;;;51.72;31.80;;;;;;;10.75;88.35;101149.75;5017108;28;20026;-78
2022/01/01 04:46:13;;;;;;;50.83;31.80;;;;;;;10.79;88.21;101161.84;5017049;28;20061;-77
2022/01/01 04:48:40;;;;;;;49.83;31.48;;;;;;;10.83;88.01;101159.19;5018528;28;20361;-78
2022/01/01 04:51:10;;;;;;;49.45;33.63;;;;;;;10.80;87.96;101146.75;5017863;28;20459;-78
2022/01/01 04:53:39;;;;;;;51.28;30.88;;;;;;;10.76;87.96;101134.69;5017219;28;20030;-77
2022/01/01 04:56:07;;;;;;;47.63;31.10;;;;;;;10.78;87.36;101143.50;5001856;28;20034;-78
2022/01/01 04:58:35;;;;;;;49.95;32.58;;;;;;;10.76;87.90;101145.84;5017372;28;20025;-78
2022/01/01 05:01:02;;;;;;;45.72;30.40;;;;;;;10.80;87.34;101155.13;5017262;28;20036;-79
2022/01/01 05:03:27;;;;;;;49.60;31.52;;;;;;;10.82;87.56;101155.59;5018408;28;20033;-77
2022/01/01 05:05:53;;;;;;;47.70;30.45;;;;;;;10.86;87.37;101155.72;5017093;28;20030;-78
2022/01/01 05:08:18;;;;;;;44.45;29.65;;;;;;;10.84;87.13;101158.84;5018193;28;20021;-79
2022/01/01 05:10:44;;;;;;;48.42;31.17;;;;;;;10.85;87.24;101166.03;5017902;28;20111;-78
2022/01/01 05:13:10;;;;;;;46.28;30.33;;;;;;;10.86;86.76;101175.22;5017991;28;20116;-79
2022/01/01 05:15:36;;;;;;;50.60;32.15;;;;;;;10.84;87.67;101172.78;5017762;28;20457;-78
2022/01/01 05:18:04;;;;;;;49.08;30.30;;;;;;;10.79;87.36;101161.84;5017826;28;20037;-79
2022/01/01 05:20:32;;;;;;;45.20;28.75;;;;;;;10.88;87.15;101184.88;5018748;28;20418;-79
2022/01/01 05:23:01;;;;;;;43.33;27.23;;;;;;;10.81;87.32;101167.88;5017345;28;20502;-79
2022/01/01 05:25:29;;;;;;;43.60;28.45;;;;;;;10.82;87.79;101166.75;5017518;28;20108;-77
2022/01/01 05:27:54;;;;;;;41.10;27.23;;;;;;;10.82;87.22;101177.06;5017178;28;20033;-79
2022/01/01 05:30:22;;;;;;;44.85;30.20;;;;;;;10.79;87.81;101178.53;5017194;28;20033;-79
2022/01/01 05:32:50;;;;;;;63.45;38.33;;;;;;;10.98;88.29;101176.09;5016585;28;20055;-77
2022/01/01 05:35:16;;;;;;;58.58;35.45;;;;;;;10.89;88.42;101167.00;5017205;28;20037;-77
2022/01/01 05:37:42;;;;;;;56.67;35.95;;;;;;;10.75;88.65;101130.25;5017957;28;20030;-79
2022/01/01 05:40:08;;;;;;;50.38;33.63;;;;;;;10.94;88.16;101157.63;5017744;28;20061;-79
2022/01/01 05:42:38;;;;;;;54.38;33.45;;;;;;;10.94;88.04;101160.41;5018158;28;20506;-78
2022/01/01 05:45:04;;;;;;;54.65;34.35;;;;;;;10.94;88.31;101161.22;5017714;28;20422;-79
2022/01/01 05:47:30;;;;;;;55.47;33.85;;;;;;;10.94;87.77;101161.22;5018214;28;20480;-79
2022/01/01 05:49:58;;;;;;;52.25;32.40;;;;;;;11.01;87.55;101160.66;5017503;28;20068;-79
2022/01/01 05:52:23;;;;;;;51.30;31.75;;;;;;;11.00;88.36;101167.38;5017711;28;20049;-78
2022/01/01 05:54:52;;;;;;;49.22;31.70;;;;;;;11.00;88.16;101162.63;5017778;28;20492;-78
2022/01/01 05:57:20;;;;;;;49.00;33.47;;;;;;;10.98;88.22;101170.53;5017650;28;20030;-79
2022/01/01 05:59:51;;;;;;;46.10;30.83;;;;;;;11.02;88.39;101171.47;5017903;28;20428;-78
2022/01/01 06:02:17;;;;;;;47.17;30.02;;;;;;;10.98;88.10;101178.88;5017499;28;20030;-78
2022/01/01 06:04:45;;;;;;;46.75;32.95;;;;;;;10.95;87.88;101176.75;5017905;28;20172;-78
2022/01/01 06:07:11;;;;;;;54.90;33.08;;;;;;;10.95;89.17;101182.34;5017495;28;20034;-79
2022/01/01 06:09:36;;;;;;;57.03;37.10;;;;;;;11.02;88.98;101188.19;5017374;28;20175;-79
2022/01/01 06:12:05;;;;;;;53.03;33.13;;;;;;;11.03;88.85;101194.56;5018672;28;20036;-77
2022/01/01 06:14:34;;;;;;;53.58;32.63;;;;;;;11.01;89.00;101197.66;5019081;28;20021;-78
2022/01/01 06:17:02;;;;;;;51.55;33.70;;;;;;;11.03;88.80;101197.34;5017675;28;20038;-78
2022/01/01 06:19:30;;;;;;;50.17;30.73;;;;;;;11.04;89.11;101190.63;5017021;28;20034;-78
2022/01/01 06:21:55;;;;;;;48.30;30.30;;;;;;;10.98;88.47;101186.41;5016949;28;20439;-78
2022/01/01 06:24:24;;;;;;;50.03;31.13;;;;;;;11.06;88.68;101209.75;5016322;28;20038;-78
2022/01/01 06:26:49;;;;;;;50.47;31.30;;;;;;;11.09;88.60;101206.31;5014600;28;20404;-78
2022/01/01 06:29:17;;;;;;;48.28;31.40;;;;;;;11.12;88.54;101202.81;5015706;28;20091;-78
2022/01/01 06:31:43;;;;;;;51.13;32.95;;;;;;;11.15;88.94;101208.53;5015977;28;20038;-79
2022/01/01 06:34:10;;;;;;;51.15;32.88;;;;;;;11.10;88.94;101207.94;5016170;28;20036;-78
2022/01/01 06:36:36;;;;;;;46.53;31.77;;;;;;;11.11;88.69;101207.59;5017085;28;20026;-79
2022/01/01 06:39:05;;;;;;;46.38;31.23;;;;;;;11.12;88.75;101211.19;5017328;28;20464;-73
2022/01/01 06:41:30;;;;;;;54.70;33.63;;;;;;;11.13;89.53;101212.81;5015145;28;20033;-76
2022/01/01 06:43:56;;;;;;;53.08;34.45;;;;;;;11.15;89.02;101221.66;5014075;28;20026;-75
2022/01/01 06:46:24;;;;;;;62.28;34.33;;;;;;;11.45;87.54;101217.59;5013807;28;20026;-75
2022/01/01 06:48:52;;;;;;;53.28;35.40;;;;;;;11.38;86.08;101222.91;5013930;28;20074;-75
2022/01/01 06:51:20;;;;;;;57.03;35.55;;;;;;;11.34;87.42;101221.94;5014463;28;20053;-77
2022/01/01 06:53:48;;;;;;;55.55;36.35;;;;;;;11.16;86.71;101231.63;5016550;28;20022;-79
2022/01/01 06:56:17;;;;;;;65.95;41.58;;;;;;;11.06;87.07;101237.63;5016960;28;20030;-77
2022/01/01 06:58:42;;;;;;;69.30;42.38;;;;;;;11.09;87.49;101237.75;5016787;28;20038;-78
2022/01/01 07:01:09;;;;;;;71.70;46.10;;;;;;;11.21;85.61;101232.25;5015531;28;20041;-77
2022/01/01 07:03:34;;;;;;;64.50;43.80;;;;;;;11.13;85.86;101237.88;5016594;28;20030;-78
2022/01/01 07:06:00;;;;;;;72.75;46.65;;;;;;;10.97;86.26;101244.09;5016725;28;20043;-74
2022/01/01 07:08:25;;;;;;;70.07;45.03;;;;;;;11.09;88.68;101242.53;5017419;28;20022;-76
2022/01/01 07:10:51;;;;;;;69.47;43.70;;;;;;;11.11;89.12;101246.56;5017163;28;20128;-78
2022/01/01 07:13:17;;;;;;;73.07;45.10;;;;;;;11.14;88.21;101250.66;5016167;28;20057;-74
2022/01/01 07:15:43;;;;;;;63.70;41.60;;;;;;;11.39;89.82;101255.16;5013855;28;20053;-75
2022/01/01 07:18:10;;;;;;;72.03;44.13;;;;;;;11.34;88.06;101258.16;5014393;28;20080;-75
2022/01/01 07:20:35;;;;;;;69.95;44.90;;;;;;;11.27;87.09;101238.41;5014175;28;20033;-79
2022/01/01 07:23:01;;;;;;;73.72;44.60;;;;;;;11.37;86.33;101265.03;5015478;28;20038;-79
2022/01/01 07:25:27;;;;;;;63.53;41.10;;;;;;;11.31;86.31;101271.97;5015117;28;20520;-79
2022/01/01 07:27:56;;;;;;;69.35;42.92;;;;;;;11.37;86.62;101282.56;5014450;28;20060;-79
2022/01/01 07:30:24;;;;;;;68.10;41.83;;;;;;;11.46;85.36;101263.00;5015395;28;20034;-79
2022/01/01 07:32:50;;;;;;;65.40;39.80;;;;;;;11.44;85.48;101276.44;5014195;28;20030;-81
2022/01/01 07:35:18;;;;;;;63.03;38.92;;;;;;;11.58;85.09;101276.97;5014297;28;20034;-81
2022/01/01 07:37:43;;;;;;;56.97;38.47;;;;;;;11.45;86.06;101287.25;5013938;28;20546;-80
2022/01/01 07:40:13;;;;;;;56.47;39.20;;;;;;;11.50;86.76;101287.06;5014347;28;20038;-81
2022/01/01 07:42:39;;;;;;;59.40;37.50;;;;;;;11.53;85.95;101286.34;5017029;28;20030;-80
2022/01/01 07:45:06;;;;;;;54.67;36.53;;;;;;;11.63;86.37;101285.13;5014959;28;20034;-81
2022/01/01 07:47:32;;;;;;;57.03;35.00;;;;;;;11.58;85.59;101284.53;5015563;28;20025;-80
2022/01/01 07:49:58;;;;;;;57.38;36.10;;;;;;;11.53;86.59;101289.13;5015280;28;20362;-80
2022/01/01 07:52:24;;;;;;;55.97;36.05;;;;;;;11.57;87.20;101296.84;5016062;28;20049;-80
2022/01/01 07:54:50;;;;;;;55.63;34.85;;;;;;;11.59;86.93;101300.06;5017290;28;20057;-80
2022/01/01 07:57:15;;;;;;;48.85;31.38;;;;;;;11.62;86.24;101299.41;5016456;28;20092;-80
2022/01/01 07:59:41;;;;;;;46.67;30.80;;;;;;;11.58;86.03;101292.88;5016652;28;20037;-79
2022/01/01 08:02:07;;;;;;;54.88;32.83;;;;;;;11.63;86.31;101296.25;5015812;28;20033;-80
2022/01/01 08:04:33;;;;;;;51.15;30.73;;;;;;;11.72;86.08;101294.22;5015617;28;20029;-79
2022/01/01 08:07:01;;;;;;;44.95;28.95;;;;;;;11.72;85.54;101288.63;5015649;28;20026;-80
2022/01/01 08:09:26;;;;;;;50.13;30.02;;;;;;;11.72;84.60;101304.56;5016254;28;20120;-79
2022/01/01 08:11:54;;;;;;;49.25;29.88;;;;;;;11.78;84.79;101308.75;5016186;28;20121;-80
2022/01/01 08:14:27;;;;;;;49.03;29.45;;;;;;;11.84;84.53;101306.59;5015760;28;20030;-80
2022/01/01 08:17:13;;;;;;;49.42;30.73;;;;;;;11.86;84.51;101310.66;5015837;28;20037;-79
2022/01/01 08:19:39;;;;;;;50.78;30.38;;;;;;;11.88;83.46;101302.78;5015002;28;20045;-79
2022/01/01 08:22:07;;;;;;;50.80;31.15;;;;;;;11.95;83.02;101308.59;5014961;28;20030;-83
2022/01/01 08:24:34;;;;;;;48.40;29.83;;;;;;;12.02;83.15;101300.47;5014752;28;20037;-80
2022/01/01 08:27:01;;;;;;;50.53;29.85;;;;;;;12.09;82.72;101296.28;5014708;28;20068;-80
2022/01/01 08:29:28;;;;;;;54.13;30.35;;;;;;;12.16;82.22;101307.72;5015073;28;20034;-76
2022/01/01 08:31:56;;;;;;;53.67;33.60;;;;;;;12.27;80.87;101303.31;5015139;28;20034;-80
2022/01/01 08:34:24;;;;;;;56.42;32.55;;;;;;;12.29;80.17;101312.13;5015194;28;20357;-80
2022/01/01 08:36:53;;;;;;;56.17;36.22;;;;;;;12.33;81.13;101313.06;5017504;28;20117;-79
2022/01/01 08:39:21;;;;;;;57.53;37.03;;;;;;;12.30;80.94;101308.16;5016922;28;20022;-80
2022/01/01 08:41:48;;;;;;;55.65;33.22;;;;;;;12.38;81.18;101304.47;5017366;28;20128;-80
2022/01/01 08:44:14;;;;;;;51.55;33.55;;;;;;;12.41;80.76;101306.59;5018042;28;20495;-79
2022/01/01 08:46:40;;;;;;;51.17;33.45;;;;;;;12.46;80.97;101317.50;5017562;28;20464;-79
2022/01/01 08:49:06;;;;;;;54.33;32.38;;;;;;;12.57;79.86;101318.69;5018361;28;20448;-76
2022/01/01 08:51:39;;;;;;;54.50;30.08;;;;;;;12.47;79.27;101310.75;5017594;28;20026;-76
2022/01/01 08:54:04;;;;;;;53.90;32.10;;;;;;;12.64;80.94;101318.09;5000602;28;20116;-72
2022/01/01 08:56:34;;;;;;;51.95;30.50;;;;;;;12.74;80.02;101322.41;5016057;28;20128;-73
2022/01/01 08:58:59;;;;;;;45.08;29.92;;;;;;;12.79;79.32;101319.38;5000197;28;20030;-73
2022/01/01 09:01:25;;;;;;;47.85;31.70;;;;;;;12.88;78.51;101328.41;5016446;28;20507;-72
2022/01/01 09:03:51;;;;;;;49.97;32.08;;;;;;;12.82;77.93;101321.44;5016224;28;20038;-73
2022/01/01 09:06:17;;;;;;;46.92;32.35;;;;;;;12.85;78.42;101307.59;5015712;28;20056;-73
2022/01/01 09:08:45;;;;;;;49.60;31.10;;;;;;;12.93;78.15;101314.22;5015878;28;20025;-73
2022/01/01 09:11:13;;;;;;;49.88;34.38;;;;;;;13.06;77.45;101315.84;5015576;28;20034;-74
2022/01/01 09:13:42;;;;;;;51.67;34.67;;;;;;;13.16;76.46;101306.16;4999411;28;20480;-74
2022/01/01 09:16:10;;;;;;;44.80;29.48;;;;;;;13.16;76.25;101310.94;5015674;28;20129;-76
2022/01/01 09:18:44;;;;;;;46.58;28.95;;;;;;;13.20;77.12;101328.59;5016589;28;20022;-75
2022/01/01 09:21:10;;;;;;;51.25;31.65;;;;;;;13.27;77.66;101324.09;5017981;28;20034;-74
2022/01/01 09:23:36;;;;;;;44.30;30.30;;;;;;;13.34;76.40;101317.88;4999122;28;20443;-73
2022/01/01 09:26:02;;;;;;;42.88;27.73;;;;;;;13.25;75.74;101306.03;5015440;28;20076;-75
2022/01/01 09:28:33;;;;;;;44.75;31.08;;;;;;;13.36;76.36;101307.97;5017306;28;20580;-75
2022/01/01 09:31:00;;;;;;;43.90;30.40;;;;;;;13.37;76.87;101292.03;5015509;28;20029;-74
2022/01/01 09:33:32;;;;;;;54.00;31.02;;;;;;;13.65;77.79;101302.41;5016188;28;20099;-75
2022/01/01 09:36:05;;;;;;;44.13;28.92;;;;;;;13.80;77.75;101307.22;5017557;28;20065;-74
2022/01/01 09:38:34;;;;;;;38.28;28.02;;;;;;;13.85;75.69;101309.75;5016782;28;20033;-74
2022/01/01 09:41:02;;;;;;;47.47;30.88;;;;;;;13.86;73.56;101309.41;5015938;28;20092;-73
2022/01/01 09:43:30;;;;;;;50.05;31.65;;;;;;;14.00;73.66;101308.16;5014046;28;20034;-73
2022/01/01 09:45:58;;;;;;;47.40;32.72;;;;;;;13.99;74.31;101300.94;5013331;28;20033;-75
2022/01/01 09:48:26;;;;;;;46.63;28.80;;;;;;;14.02;72.23;101309.44;5014444;28;20105;-74
2022/01/01 09:50:57;;;;;;;49.22;30.63;;;;;;;14.15;73.31;101296.97;5013396;28;20026;-74
2022/01/01 09:53:30;;;;;;;45.20;28.45;;;;;;;14.20;72.73;101286.69;5014074;28;20439;-75
2022/01/01 09:55:57;;;;;;;37.22;25.77;;;;;;;14.29;72.02;101302.13;5014455;28;20037;-75
2022/01/01 09:58:25;;;;;;;40.35;24.42;;;;;;;14.25;70.76;101306.00;5014716;28;20392;-73
2022/01/01 10:00:52;;;;;;;42.33;25.98;;;;;;;14.31;70.98;101299.78;5013470;28;20116;-73
2022/01/01 10:03:29;;;;;;;41.50;28.35;;;;;;;14.22;70.68;101301.13;5014450;28;20083;-73
2022/01/01 10:06:12;;;;;;;43.33;28.95;;;;;;;14.04;72.59;101301.47;5014997;28;20112;-73
2022/01/01 10:08:39;;;;;;;36.95;24.35;;;;;;;14.13;71.48;101301.31;5014492;28;20026;-74
2022/01/01 10:11:06;;;;;;;38.08;25.73;;;;;;;14.07;71.66;101292.38;5014382;28;20034;-75
2022/01/01 10:13:39;;;;;;;34.33;22.73;;;;;;;13.92;70.36;101307.16;5014561;28;20050;-74
2022/01/01 10:16:15;;;;;;;;;;;;;;;13.92;71.78;101307.16;5014716;28;20034;-74
2022/01/01 10:19:01;;;;;;;30.02;19.08;;;;;;;13.92;70.77;101309.94;5014225;28;20009;-75
2022/01/01 10:21:36;;;;;;;37.55;24.30;;;;;;;13.87;72.44;101307.41;5014447;28;20041;-74
2022/01/01 10:24:02;;;;;;;30.83;19.95;;;;;;;13.77;72.42;101308.75;5014180;28;20118;-76
2022/01/01 10:29:16;;;;;;;36.45;24.40;;;;;;;13.88;72.61;101315.44;5014647;28;20125;-72
2022/01/01 10:31:59;;;;;;;29.95;17.98;;;;;;;13.99;71.38;101312.13;5015120;28;20037;-73
2022/01/01 10:34:31;;;;;;;32.25;20.88;;;;;;;14.00;71.28;101305.34;5014965;28;20358;-73
2022/01/01 10:36:58;;;;;;;39.03;22.58;;;;;;;13.94;71.98;101302.00;5015506;28;20108;-74
2022/01/01 10:39:27;;;;;;;29.30;19.90;;;;;;;13.93;71.51;101303.19;5014603;28;20052;-76
2022/01/01 10:42:12;;;;;;;42.05;23.50;;;;;;;13.98;72.23;101297.31;5014187;28;20038;-75
2022/01/01 10:44:38;;;;;;;39.35;24.48;;;;;;;13.92;71.84;101298.75;5013923;28;20092;-74
2022/01/01 10:47:15;;;;;;;39.58;25.88;;;;;;;13.97;71.75;101301.28;5014255;28;20034;-74
2022/01/01 10:52:16;;;;;;;30.65;22.25;;;;;;;13.87;70.92;101273.84;5014617;28;20142;-73
2022/01/01 10:54:58;;;;;;;33.83;23.58;;;;;;;14.13;71.08;101288.13;5013467;28;20121;-73
2022/01/01 10:57:28;;;;;;;32.55;22.38;;;;;;;14.10;70.69;101293.63;5014184;28;20034;-73
2022/01/01 11:00:14;;;;;;;35.35;21.77;;;;;;;13.91;71.23;101297.13;5014043;28;20028;-72
2022/01/01 11:02:48;;;;;;;32.22;22.38;;;;;;;13.95;71.20;101280.44;5013884;28;20124;-73
2022/01/01 11:05:14;;;;;;;36.53;22.02;;;;;;;13.98;71.41;101299.31;5015011;28;20033;-72
2022/01/01 11:07:50;;;;;;;51.08;30.90;;;;;;;14.01;71.17;101295.78;5013274;28;20037;-73
2022/01/01 11:10:18;;;;;;;36.35;24.60;;;;;;;13.97;70.71;101290.09;5013585;28;20025;-72
2022/01/01 11:12:43;;;;;;;42.17;27.83;;;;;;;14.01;71.97;101284.56;5014582;28;20033;-73
2022/01/01 11:15:10;;;;;;;41.13;26.35;;;;;;;14.04;71.86;101281.88;5013717;28;20026;-72
2022/01/01 11:17:37;;;;;;;38.03;24.90;;;;;;;14.05;71.08;101277.91;5013190;28;20036;-74
2022/01/01 11:20:06;;;;;;;45.30;29.83;;;;;;;14.09;71.64;101270.44;5013755;28;20464;-73
2022/01/01 11:22:32;;;;;;;38.38;24.55;;;;;;;14.09;70.59;101275.22;5014918;28;20464;-74